EST,Max TemperatureF,Mean TemperatureF,Min TemperatureF,Max Dew PointF,MeanDew PointF,Min DewpointF,Max Humidity, Mean Humidity, Min Humidity, Max Sea Level PressureIn, Mean Sea Level PressureIn, Min Sea Level PressureIn, Max VisibilityMiles, Mean VisibilityMiles, Min VisibilityMiles, Max Wind SpeedMPH, Mean Wind SpeedMPH, Max Gust SpeedMPH,PrecipitationIn, CloudCover, Events, WindDirDegrees
2012-1-1,48,40,32,40,31,25,87,77,61,29.94,29.73,29.50,10,8,2,30,15,47,0.04,7,Rain-Snow,230
2012-1-2,32,28,21,27,20,11,86,72,56,30.16,29.94,29.84,10,7,1,22,15,29,0.00,8,Snow,289
2012-1-3,26,22,18,14,10,6,74,61,47,30.30,30.23,30.15,10,8,2,22,12,29,0.00,6,Snow,302
2012-1-4,37,29,21,25,18,10,73,62,52,30.19,29.98,29.86,10,10,10,15,11,18,0.00,2,,237
2012-1-5,43,34,25,30,26,21,85,72,55,30.01,29.90,29.70,10,9,3,17,8,22,0.00,0,,225
2012-1-6,55,46,37,36,33,29,76,66,47,29.73,29.69,29.66,10,10,10,17,12,,0.00,0,,217
2012-1-7,48,42,36,33,29,24,82,60,46,30.18,29.92,29.68,10,10,10,20,11,25,0.00,5,,286
2012-1-8,41,34,26,25,22,19,75,65,45,30.37,30.31,30.19,10,10,10,7,4,,0.00,0,,238
2012-1-9,43,34,24,27,23,19,82,66,45,30.28,30.08,29.91,10,10,7,16,7,23,0.00,1,,217
2012-1-10,48,40,32,31,28,25,82,67,48,30.05,29.97,29.89,10,10,8,16,9,24,0.00,0,,236
2012-1-11,48,36,25,37,30,21,89,76,46,29.88,29.69,29.47,10,6,0,12,4,,0.10,3,Rain,76
2012-1-12,42,34,24,38,35,16,89,83,71,29.46,29.37,29.30,10,4,2,22,8,31,0.18,8,Rain-Snow,326
2012-1-13,30,26,21,25,19,13,81,73,64,29.96,29.61,29.38,10,5,1,21,15,30,0.00,8,Snow,264
2012-1-14,25,23,21,19,17,12,86,75,63,30.26,30.09,29.95,10,5,2,9,6,,0.00,8,Snow,200
2012-1-15,27,22,17,16,12,3,74,66,50,30.47,30.39,30.26,10,10,6,14,7,,0.00,5,Snow,147
2012-1-16,45,33,21,41,30,14,87,74,62,30.30,29.94,29.78,10,7,2,18,11,21,0.08,5,Rain,193
2012-1-17,54,41,28,49,40,17,93,83,61,30.01,29.64,29.34,10,4,0,36,10,41,1.09,8,Fog-Rain-Snow,219
2012-1-18,28,24,19,18,12,9,69,60,50,30.28,30.16,30.01,10,10,10,21,12,28,0.00,6,,270
2012-1-19,30,19,8,25,14,-2,80,68,48,30.18,29.88,29.74,10,6,0,24,16,33,0.00,5,Snow,252
2012-1-20,19,11,3,12,6,-4,81,69,50,30.32,30.20,30.07,10,5,1,12,5,,0.00,4,Snow,41
2012-1-21,28,19,10,14,9,3,85,71,53,30.32,30.18,30.06,10,9,2,12,8,,0.10,3,Snow,11
2012-1-22,37,24,10,34,23,5,93,82,71,30.28,30.08,29.83,10,5,1,14,7,,0.06,8,Rain,139
2012-1-23,53,44,34,46,37,23,93,81,61,29.83,29.61,29.44,10,7,1,31,12,44,0.30,8,Rain,176
2012-1-24,36,34,32,24,23,21,67,63,61,30.34,30.11,29.85,10,10,9,21,16,28,0.00,8,,267
2012-1-25,33,32,30,24,22,21,76,68,64,30.39,30.31,30.17,10,9,5,9,5,,0.00,7,,208
2012-1-26,37,34,30,32,30,24,87,82,75,30.17,29.81,29.53,8,3,1,10,6,,0.26,8,Rain,70
2012-1-27,42,37,30,32,29,23,85,77,53,29.97,29.67,29.49,10,7,2,18,10,25,0.15,6,Rain-Snow,296
2012-1-28,37,32,28,31,26,15,87,73,44,30.07,29.85,29.73,10,5,1,32,15,44,0.05,6,Snow,226
2012-1-29,36,30,19,28,24,11,86,73,56,30.23,29.97,29.86,10,6,0,29,14,38,0.02,6,Snow,245
2012-1-30,39,26,16,30,20,10,82,73,64,30.26,30.11,29.94,10,9,6,15,6,,0.00,3,,187
2012-1-31,57,48,39,45,36,30,83,65,48,29.94,29.89,29.83,10,10,10,21,15,29,0.01,3,Rain,218